Time;durP1;ratioP1;P1;durP2;ratioP2;P2;SDS_P1;SDS_P2;PMS_P1;PMS_P2;Temp;Humidity;BMP_temperature;BMP_pressure;BME280_temperature;BME280_humidity;BME280_pressure;Samples;Min_cycle;Max_cycle;Signal;HPM_P1;HPM_P2
2022/11/01 00:02:06;;;;;;;23.55;11.77;;;;;;;;;;4976969;28;20027;-80
2022/11/01 00:04:32;;;;;;;25.23;11.95;;;;;;;;;;4980169;28;20030;-80
2022/11/01 00:06:58;;;;;;;20.70;11.25;;;;;;;;;;4980892;28;20109;-81
2022/11/01 00:09:24;;;;;;;21.83;12.80;;;;;;;;;;4980059;28;20055;-79
2022/11/01 00:11:50;;;;;;;22.80;12.18;;;;;;;;;;4980076;28;20537;-80
2022/11/01 00:14:17;;;;;;;21.23;10.80;;;;;;;;;;4979318;28;20089;-80
2022/11/01 00:16:43;;;;;;;23.10;10.82;;;;;;;;;;4980522;28;20388;-81
2022/11/01 00:19:09;;;;;;;16.10;9.68;;;;;;;;;;4980356;28;20109;-81
2022/11/01 00:21:35;;;;;;;16.52;9.65;;;;;;;;;;4979646;28;20042;-81
2022/11/01 00:24:01;;;;;;;17.48;9.48;;;;;;;;;;4980148;28;20023;-79
2022/11/01 00:26:27;;;;;;;19.80;9.85;;;;;;;;;;4979561;28;20030;-78
2022/11/01 00:28:53;;;;;;;16.30;8.98;;;;;;;;;;4977796;28;20023;-78
2022/11/01 00:31:20;;;;;;;16.98;9.15;;;;;;;;;;4977590;28;20031;-78
2022/11/01 00:33:46;;;;;;;20.50;9.43;;;;;;;;;;4978961;28;20054;-78
2022/11/01 00:36:12;;;;;;;16.77;9.32;;;;;;;;;;4977641;28;20023;-79
2022/11/01 00:38:38;;;;;;;17.05;8.73;;;;;;;;;;4978358;28;20026;-79
2022/11/01 00:41:05;;;;;;;15.27;9.43;;;;;;;;;;4979058;28;20031;-79
2022/11/01 00:43:35;;;;;;;19.42;9.45;;;;;;;;;;4979487;28;20037;-79
2022/11/01 00:46:01;;;;;;;19.77;9.77;;;;;;;;;;4978454;28;20026;-79
2022/11/01 00:48:27;;;;;;;21.27;9.70;;;;;;;;;;4978394;28;20019;-79
2022/11/01 00:50:53;;;;;;;18.38;9.32;;;;;;;;;;4978873;28;20023;-81
2022/11/01 00:53:19;;;;;;;17.13;9.95;;;;;;;;;;4979752;28;20073;-79
2022/11/01 00:55:45;;;;;;;22.13;9.73;;;;;;;;;;4979255;28;20030;-80
2022/11/01 00:58:12;;;;;;;18.38;9.63;;;;;;;;;;4978966;28;20030;-80
2022/11/01 01:00:38;;;;;;;19.23;11.85;;;;;;;;;;4977927;28;20093;-80
2022/11/01 01:03:04;;;;;;;19.27;10.68;;;;;;;;;;4978757;28;20113;-79
2022/11/01 01:05:31;;;;;;;20.20;10.48;;;;;;;;;;4979205;28;20100;-80
2022/11/01 01:07:57;;;;;;;22.00;11.20;;;;;;;;;;4978736;28;20027;-79
2022/11/01 01:10:23;;;;;;;21.60;10.45;;;;;;;;;;4978937;28;20046;-78
2022/11/01 01:12:49;;;;;;;18.27;10.73;;;;;;;;;;4976388;28;20061;-79
2022/11/01 01:15:15;;;;;;;22.50;11.85;;;;;;;;;;4976958;28;20027;-79
2022/11/01 01:17:41;;;;;;;19.90;10.82;;;;;;;;;;4978359;28;20037;-79
2022/11/01 01:20:07;;;;;;;22.98;10.68;;;;;;;;;;4978306;28;20082;-79
2022/11/01 01:22:33;;;;;;;25.15;11.75;;;;;;;;;;4977979;28;20027;-79
2022/11/01 01:24:59;;;;;;;23.55;12.10;;;;;;;;;;4978889;28;20065;-80
2022/11/01 01:27:25;;;;;;;22.23;12.13;;;;;;;;;;4977326;28;20027;-79
2022/11/01 01:29:52;;;;;;;22.77;11.18;;;;;;;;;;4976421;28;20024;-80
2022/11/01 01:32:19;;;;;;;21.92;12.30;;;;;;;;;;4977756;28;20654;-79
2022/11/01 01:34:45;;;;;;;24.13;12.45;;;;;;;;;;4978109;28;20399;-79
2022/11/01 01:37:13;;;;;;;23.40;11.60;;;;;;;;;;4978446;28;20058;-78
2022/11/01 01:39:40;;;;;;;22.88;11.15;;;;;;;;;;4978505;28;20046;-79
2022/11/01 01:42:14;;;;;;;23.90;11.18;;;;;;;;;;4977519;28;20031;-80
2022/11/01 01:45:06;;;;;;;21.92;10.48;;;;;;;;;;4974093;28;20023;-79
2022/11/01 01:47:33;;;;;;;21.88;11.32;;;;;;;;;;4973835;28;20100;-77
2022/11/01 01:50:02;;;;;;;24.75;11.68;;;;;;;;;;4972946;28;20031;-80
2022/11/01 01:52:33;;;;;;;19.88;11.25;;;;;;;;;;4975808;28;20034;-79
2022/11/01 01:55:00;;;;;;;20.60;10.85;;;;;;;;;;4976424;28;20027;-80
2022/11/01 01:57:26;;;;;;;20.52;10.48;;;;;;;;;;4978223;28;20078;-79
2022/11/01 01:59:52;;;;;;;23.90;11.18;;;;;;;;;;4977046;28;20026;-80
2022/11/01 02:02:18;;;;;;;23.42;11.32;;;;;;;;;;4976719;28;20038;-79
2022/11/01 02:04:51;;;;;;;24.50;11.77;;;;;;;;;;4977754;28;20090;-79
2022/11/01 02:07:17;;;;;;;24.42;11.75;;;;;;;;;;4976641;28;20110;-79
2022/11/01 02:09:43;;;;;;;24.13;11.90;;;;;;;;;;4973722;28;20509;-79
2022/11/01 02:12:13;;;;;;;23.10;12.10;;;;;;;;;;4976962;28;20031;-79
2022/11/01 02:14:41;;;;;;;26.30;11.88;;;;;;;;;;4976242;28;20035;-77
2022/11/01 02:17:11;;;;;;;25.98;12.13;;;;;;;;;;4972945;28;20073;-79
2022/11/01 02:19:54;;;;;;;26.55;12.45;;;;;;;;;;4973278;28;20052;-79
2022/11/01 02:22:38;;;;;;;23.55;12.85;;;;;;;;;;4974552;28;20047;-79
2022/11/01 02:25:23;;;;;;;26.00;11.90;;;;;;;;;;4972629;28;20042;-79
2022/11/01 02:28:01;;;;;;;24.70;12.57;;;;;;;;;;4974258;28;20090;-79
2022/11/01 02:30:35;;;;;;;26.15;12.68;;;;;;;;;;4975148;28;20114;-79
2022/11/01 02:33:04;;;;;;;26.13;11.95;;;;;;;;;;4974834;28;20117;-79
2022/11/01 02:35:39;;;;;;;24.98;11.23;;;;;;;;;;4975372;28;20026;-79
2022/11/01 02:38:05;;;;;;;27.45;12.82;;;;;;;;;;4976518;28;20110;-79
2022/11/01 02:40:46;;;;;;;25.00;11.85;;;;;;;;;;4973498;28;20031;-79
2022/11/01 02:43:15;;;;;;;25.48;11.18;;;;;;;;;;4972467;28;20057;-79
2022/11/01 02:45:43;;;;;;;25.25;11.98;;;;;;;;;;4975169;28;20058;-80
2022/11/01 02:48:09;;;;;;;23.30;11.93;;;;;;;;;;4974536;28;20121;-77
2022/11/01 02:50:41;;;;;;;24.90;11.30;;;;;;;;;;4972878;28;20093;-79
2022/11/01 02:53:07;;;;;;;21.80;11.57;;;;;;;;;;4973971;28;20434;-79
2022/11/01 02:55:34;;;;;;;27.92;12.23;;;;;;;;;;4974942;28;20341;-79
2022/11/01 02:58:05;;;;;;;28.90;11.95;;;;;;;;;;4974899;28;20023;-79
2022/11/01 03:00:32;;;;;;;24.10;12.10;;;;;;;;;;4973457;28;20027;-78
2022/11/01 03:02:58;;;;;;;26.48;12.13;;;;;;;;;;4974328;28;20042;-79
2022/11/01 03:05:43;;;;;;;28.63;13.55;;;;;;;;;;4974232;28;20023;-79
2022/11/01 03:08:11;;;;;;;28.70;12.35;;;;;;;;;;4972473;28;20030;-79
2022/11/01 03:10:43;;;;;;;26.58;12.52;;;;;;;;;;4974378;28;20514;-78
2022/11/01 03:13:27;;;;;;;31.30;12.68;;;;;;;;;;4973173;28;20522;-79
2022/11/01 03:15:56;;;;;;;26.38;12.30;;;;;;;;;;4973374;28;20030;-79
2022/11/01 03:18:28;;;;;;;27.98;12.15;;;;;;;;;;4973089;28;20390;-79
2022/11/01 03:20:58;;;;;;;25.98;14.85;;;;;;;;;;4971283;28;20515;-78
2022/11/01 03:23:37;;;;;;;25.27;12.35;;;;;;;;;;4973497;28;20027;-79
2022/11/01 03:26:06;;;;;;;24.75;12.52;;;;;;;;;;4972610;28;20391;-80
2022/11/01 03:28:36;;;;;;;29.08;12.98;;;;;;;;;;4973902;28;20078;-79
2022/11/01 03:31:09;;;;;;;29.83;12.90;;;;;;;;;;4972361;28;20035;-79
2022/11/01 03:33:38;;;;;;;28.48;13.35;;;;;;;;;;4972864;28;20110;-79
2022/11/01 03:36:07;;;;;;;26.38;13.07;;;;;;;;;;4973096;28;20035;-79
2022/11/01 03:38:35;;;;;;;26.80;13.07;;;;;;;;;;4976545;28;20069;-79
2022/11/01 03:41:03;;;;;;;31.15;13.40;;;;;;;;;;4977241;28;20030;-79
2022/11/01 03:43:31;;;;;;;27.48;13.23;;;;;;;;;;4978232;28;20023;-79
2022/11/01 03:45:57;;;;;;;31.88;14.35;;;;;;;;;;4978094;28;20027;-76
2022/11/01 03:48:23;;;;;;;30.98;14.05;;;;;;;;;;4976767;28;20027;-77
2022/11/01 03:50:51;;;;;;;30.67;14.45;;;;;;;;;;4976053;28;20097;-78
2022/11/01 03:53:17;;;;;;;28.70;14.38;;;;;;;;;;4975940;28;20097;-77
2022/11/01 03:55:43;;;;;;;30.27;13.65;;;;;;;;;;4974283;28;20065;-77
2022/11/01 03:58:09;;;;;;;33.60;13.95;;;;;;;;;;4975753;28;20087;-77
2022/11/01 04:00:40;;;;;;;31.42;15.05;;;;;;;;;;4974216;28;20030;-77
2022/11/01 04:03:06;;;;;;;34.53;13.82;;;;;;;;;;4975361;28;20089;-79
2022/11/01 04:05:33;;;;;;;31.55;15.45;;;;;;;;;;4977500;28;20042;-79
2022/11/01 04:07:59;;;;;;;30.63;15.85;;;;;;;;;;4978154;28;20064;-79
2022/11/01 04:10:26;;;;;;;33.70;14.40;;;;;;;;;;4975864;28;20051;-77
2022/11/01 04:12:52;;;;;;;32.10;15.32;;;;;;;;;;4975020;28;20030;-77
2022/11/01 04:21:07;;;;;;;34.28;14.68;;;;;;;;;;4975436;28;20094;-79
2022/11/01 04:23:34;;;;;;;26.65;14.88;;;;;;;;;;4976869;28;20059;-79
2022/11/01 04:26:00;;;;;;;33.58;15.63;;;;;;;;;;4977801;28;20026;-79
2022/11/01 04:28:26;;;;;;;29.13;15.25;;;;;;;;;;4977797;28;20386;-79
2022/11/01 04:30:52;;;;;;;31.25;14.60;;;;;;;;;;4976826;28;20048;-79
2022/11/01 04:33:18;;;;;;;31.90;15.13;;;;;;;;;;4976349;28;20035;-79
2022/11/01 04:35:44;;;;;;;31.50;15.15;;;;;;;;;;4975688;28;20027;-78
2022/11/01 04:38:11;;;;;;;27.10;13.65;;;;;;;;;;4976127;28;20561;-79
2022/11/01 04:40:37;;;;;;;32.55;15.15;;;;;;;;;;4975532;28;20039;-78
2022/11/01 04:43:04;;;;;;;31.75;15.23;;;;;;;;;;4976216;28;20031;-79
2022/11/01 04:45:30;;;;;;;30.83;14.40;;;;;;;;;;4975425;28;20031;-79
2022/11/01 04:48:02;;;;;;;32.47;14.60;;;;;;;;;;4976291;28;20511;-79
2022/11/01 04:50:29;;;;;;;31.58;14.18;;;;;;;;;;4975028;28;20023;-79
2022/11/01 04:52:55;;;;;;;36.15;14.82;;;;;;;;;;4975703;28;20026;-79
2022/11/01 04:55:21;;;;;;;32.83;15.05;;;;;;;;;;4975374;28;20042;-79
2022/11/01 04:57:47;;;;;;;31.17;15.55;;;;;;;;;;4975805;28;20414;-79
2022/11/01 05:00:13;;;;;;;31.17;14.90;;;;;;;;;;4975717;28;20026;-78
2022/11/01 05:02:40;;;;;;;32.90;14.85;;;;;;;;;;4975479;28;20700;-78
2022/11/01 05:05:07;;;;;;;31.67;14.60;;;;;;;;;;4975204;28;20022;-78
2022/11/01 05:07:33;;;;;;;37.47;15.20;;;;;;;;;;4976084;28;20027;-79
2022/11/01 05:09:59;;;;;;;37.55;15.57;;;;;;;;;;4975931;28;20027;-79
2022/11/01 05:12:25;;;;;;;32.30;15.45;;;;;;;;;;4975589;28;20047;-79
2022/11/01 05:14:51;;;;;;;31.27;15.43;;;;;;;;;;4975179;28;20033;-78
2022/11/01 05:17:17;;;;;;;34.47;15.07;;;;;;;;;;4975582;28;20031;-79
2022/11/01 05:19:43;;;;;;;30.20;15.25;;;;;;;;;;4975525;28;20138;-79
2022/11/01 05:22:09;;;;;;;29.13;14.98;;;;;;;;;;4975117;28;20495;-78
2022/11/01 05:24:35;;;;;;;31.33;15.85;;;;;;;;;;4975255;28;20027;-79
2022/11/01 05:27:01;;;;;;;32.40;14.75;;;;;;;;;;4975015;28;20076;-78
2022/11/01 05:29:27;;;;;;;32.95;15.35;;;;;;;;;;4974954;28;20065;-78
2022/11/01 05:31:53;;;;;;;28.40;15.05;;;;;;;;;;4975451;28;20037;-78
2022/11/01 05:34:20;;;;;;;29.67;14.93;;;;;;;;;;4975304;28;20026;-79
2022/11/01 05:36:46;;;;;;;33.00;15.13;;;;;;;;;;4975445;28;20042;-79
2022/11/01 05:39:12;;;;;;;33.90;15.00;;;;;;;;;;4974825;28;20710;-79
2022/11/01 05:41:39;;;;;;;29.70;15.02;;;;;;;;;;4974633;28;20058;-79
2022/11/01 05:44:05;;;;;;;30.05;15.20;;;;;;;;;;4974941;28;20038;-78
2022/11/01 05:46:31;;;;;;;33.45;15.77;;;;;;;;;;4975502;28;20055;-79
2022/11/01 05:48:57;;;;;;;34.47;15.30;;;;;;;;;;4974973;28;20023;-79
2022/11/01 05:51:24;;;;;;;34.75;16.35;;;;;;;;;;4975252;28;20718;-79
2022/11/01 05:53:50;;;;;;;35.60;17.13;;;;;;;;;;4975201;28;20073;-78
2022/11/01 05:56:16;;;;;;;31.67;15.02;;;;;;;;;;4975187;28;20515;-79
2022/11/01 05:58:43;;;;;;;32.83;14.88;;;;;;;;;;4974662;28;20443;-79
2022/11/01 06:01:09;;;;;;;33.60;15.45;;;;;;;;;;4973757;28;20360;-79
2022/11/01 06:03:35;;;;;;;35.72;16.00;;;;;;;;;;4974665;28;20398;-78
2022/11/01 06:06:01;;;;;;;35.22;15.88;;;;;;;;;;4974688;28;20019;-79
2022/11/01 06:08:28;;;;;;;29.25;15.63;;;;;;;;;;4975025;28;20027;-78
2022/11/01 06:11:01;;;;;;;34.47;16.55;;;;;;;;;;4974761;28;20053;-79
2022/11/01 06:13:27;;;;;;;33.75;16.33;;;;;;;;;;4975203;28;20026;-79
2022/11/01 06:16:00;;;;;;;29.15;15.73;;;;;;;;;;4975009;28;20029;-78
2022/11/01 06:18:26;;;;;;;33.05;16.13;;;;;;;;;;4973979;28;20023;-79
2022/11/01 06:20:52;;;;;;;29.08;15.95;;;;;;;;;;4974186;28;20043;-78
2022/11/01 06:23:18;;;;;;;34.97;15.30;;;;;;;;;;4975600;28;20031;-78
2022/11/01 06:25:45;;;;;;;35.35;15.68;;;;;;;;;;4975898;28;20050;-79
2022/11/01 06:28:11;;;;;;;37.40;18.15;;;;;;;;;;4975656;28;20023;-79
2022/11/01 06:30:40;;;;;;;34.72;14.77;;;;;;;;;;4973971;28;20023;-79
2022/11/01 06:33:08;;;;;;;33.10;16.17;;;;;;;;;;4973396;28;20037;-79
2022/11/01 06:35:34;;;;;;;38.67;17.08;;;;;;;;;;4974870;28;20027;-78
2022/11/01 06:38:07;;;;;;;31.48;15.43;;;;;;;;;;4975304;28;20027;-80
2022/11/01 06:40:36;;;;;;;33.38;15.27;;;;;;;;;;4974637;28;20019;-78
2022/11/01 06:43:03;;;;;;;31.88;15.48;;;;;;;;;;4974146;28;20077;-78
2022/11/01 06:45:29;;;;;;;36.72;17.52;;;;;;;;;;4974700;28;20027;-80
2022/11/01 06:47:56;;;;;;;34.35;14.95;;;;;;;;;;4974606;28;20030;-79
2022/11/01 06:50:22;;;;;;;31.85;14.75;;;;;;;;;;4973853;28;20019;-79
2022/11/01 06:52:48;;;;;;;35.05;16.08;;;;;;;;;;4972591;28;20629;-78
2022/11/01 06:55:14;;;;;;;27.40;14.73;;;;;;;;;;4974274;28;20510;-78
2022/11/01 06:57:40;;;;;;;30.80;14.82;;;;;;;;;;4975647;28;20034;-79
2022/11/01 07:00:08;;;;;;;31.40;14.48;;;;;;;;;;4973859;28;20038;-78
2022/11/01 07:02:34;;;;;;;29.27;14.48;;;;;;;;;;4973682;28;20034;-78
2022/11/01 07:05:00;;;;;;;36.75;16.55;;;;;;;;;;4971863;28;20030;-78
2022/11/01 07:07:26;;;;;;;30.33;15.13;;;;;;;;;;4974413;28;20027;-79
2022/11/01 07:09:52;;;;;;;31.67;15.48;;;;;;;;;;4975663;28;20025;-79
2022/11/01 07:12:18;;;;;;;34.55;16.05;;;;;;;;;;4974395;28;20029;-79
2022/11/01 07:14:44;;;;;;;32.80;14.65;;;;;;;;;;4973288;28;21025;-79
2022/11/01 07:17:10;;;;;;;29.45;14.52;;;;;;;;;;4974894;28;20388;-78
2022/11/01 07:19:36;;;;;;;27.70;14.95;;;;;;;;;;4974759;28;20027;-78
2022/11/01 07:22:02;;;;;;;30.13;15.00;;;;;;;;;;4973475;28;20051;-79
2022/11/01 07:24:28;;;;;;;31.20;15.10;;;;;;;;;;4973643;28;20041;-79
2022/11/01 07:26:54;;;;;;;33.20;15.98;;;;;;;;;;4974619;28;20480;-79
2022/11/01 07:29:20;;;;;;;32.63;15.23;;;;;;;;;;4973813;28;20027;-79
2022/11/01 07:31:46;;;;;;;31.92;15.02;;;;;;;;;;4973680;28;20062;-79
2022/11/01 07:34:12;;;;;;;31.20;16.10;;;;;;;;;;4972428;28;20094;-78
2022/11/01 07:36:38;;;;;;;39.40;17.10;;;;;;;;;;4973727;28;20031;-78
2022/11/01 07:39:04;;;;;;;30.95;14.52;;;;;;;;;;4973006;28;20027;-79
2022/11/01 07:41:30;;;;;;;30.85;15.18;;;;;;;;;;4973702;28;20398;-79
2022/11/01 07:43:56;;;;;;;31.55;15.48;;;;;;;;;;4972989;28;20027;-78
2022/11/01 07:46:22;;;;;;;34.90;15.70;;;;;;;;;;4974298;28;20019;-79
2022/11/01 07:48:50;;;;;;;29.20;15.40;;;;;;;;;;4974710;28;20443;-78
2022/11/01 07:51:17;;;;;;;30.23;14.80;;;;;;;;;;4975097;28;20039;-79
2022/11/01 07:53:43;;;;;;;32.60;14.70;;;;;;;;;;4974013;28;20031;-79
2022/11/01 07:56:09;;;;;;;30.45;14.25;;;;;;;;;;4972353;28;20034;-78
2022/11/01 07:58:35;;;;;;;33.72;15.85;;;;;;;;;;4973832;28;20545;-79
2022/11/01 08:01:01;;;;;;;33.50;14.20;;;;;;;;;;4972340;28;20054;-78
2022/11/01 08:03:27;;;;;;;33.35;14.52;;;;;;;;;;4973859;28;20078;-79
2022/11/01 08:05:55;;;;;;;34.53;14.90;;;;;;;;;;4972682;28;20489;-79
2022/11/01 08:08:21;;;;;;;31.23;15.02;;;;;;;;;;4973998;28;20026;-79
2022/11/01 08:10:47;;;;;;;35.95;14.45;;;;;;;;;;4972469;28;20023;-79
2022/11/01 08:13:17;;;;;;;31.63;14.73;;;;;;;;;;4973104;28;20022;-79
2022/11/01 08:15:45;;;;;;;29.15;14.35;;;;;;;;;;4971948;28;20089;-79
2022/11/01 08:18:11;;;;;;;32.63;16.55;;;;;;;;;;4973324;28;20117;-79
2022/11/01 08:20:37;;;;;;;33.45;15.25;;;;;;;;;;4973692;28;20055;-79
2022/11/01 08:23:04;;;;;;;29.15;14.80;;;;;;;;;;4979354;28;20031;-78
2022/11/01 08:25:30;;;;;;;30.83;15.00;;;;;;;;;;4989314;28;20023;-78
2022/11/01 08:28:00;;;;;;;37.92;15.75;;;;;;;;;;4988677;28;20038;-78
2022/11/01 08:30:26;;;;;;;29.65;14.75;;;;;;;;;;4977529;28;20031;-78
2022/11/01 08:33:01;;;;;;;32.25;15.48;;;;;;;;;;4976994;28;20077;-79
2022/11/01 08:35:28;;;;;;;27.42;14.90;;;;;;;;;;4976086;28;20110;-78
2022/11/01 08:37:54;;;;;;;29.52;15.02;;;;;;;;;;4975543;28;20027;-78
2022/11/01 08:40:21;;;;;;;28.92;14.02;;;;;;;;;;4977114;28;20031;-78
2022/11/01 08:42:47;;;;;;;33.10;14.70;;;;;;;;;;4975461;28;20054;-79
2022/11/01 08:45:14;;;;;;;31.10;15.98;;;;;;;;;;4976451;28;20023;-79
2022/11/01 08:47:40;;;;;;;30.17;14.43;;;;;;;;;;4976144;28;20026;-79
2022/11/01 08:50:07;;;;;;;26.77;14.70;;;;;;;;;;4976512;28;20039;-79
2022/11/01 08:52:33;;;;;;;30.08;14.43;;;;;;;;;;4976222;28;20027;-79
2022/11/01 08:54:59;;;;;;;29.67;15.23;;;;;;;;;;4976368;28;20399;-79
2022/11/01 08:57:25;;;;;;;29.25;14.68;;;;;;;;;;4975942;28;20514;-79
2022/11/01 08:59:51;;;;;;;26.75;15.18;;;;;;;;;;4975892;28;20027;-79
2022/11/01 09:02:17;;;;;;;29.95;14.82;;;;;;;;;;4975866;28;20022;-79
2022/11/01 09:04:43;;;;;;;29.05;14.40;;;;;;;;;;4975108;28;20543;-78
2022/11/01 09:07:09;;;;;;;28.20;13.25;;;;;;;;;;4975512;28;20099;-79
2022/11/01 09:09:35;;;;;;;28.27;14.82;;;;;;;;;;4974943;28;20030;-79
2022/11/01 09:12:03;;;;;;;23.23;12.85;;;;;;;;;;4976240;28;20537;-79
2022/11/01 09:14:29;;;;;;;28.25;14.77;;;;;;;;;;4976394;28;20026;-78
2022/11/01 09:16:55;;;;;;;27.50;14.77;;;;;;;;;;4975447;28;20022;-78
2022/11/01 09:19:21;;;;;;;28.55;14.75;;;;;;;;;;4974679;28;20446;-77
2022/11/01 09:21:47;;;;;;;28.27;14.68;;;;;;;;;;4975968;28;20573;-79
2022/11/01 09:24:14;;;;;;;25.50;14.32;;;;;;;;;;4976144;28;20018;-79
2022/11/01 09:26:40;;;;;;;34.83;16.90;;;;;;;;;;4975723;28;20054;-79
2022/11/01 09:29:07;;;;;;;32.33;16.52;;;;;;;;;;4976291;28;20038;-79
2022/11/01 09:31:33;;;;;;;38.95;19.23;;;;;;;;;;4976534;28;20379;-79
2022/11/01 09:34:00;;;;;;;39.63;19.83;;;;;;;;;;4976025;28;20151;-79
2022/11/01 09:36:27;;;;;;;40.67;22.08;;;;;;;;;;4976067;28;20027;-79
2022/11/01 09:38:53;;;;;;;38.17;20.90;;;;;;;;;;4976097;28;20049;-79
2022/11/01 09:41:34;;;;;;;45.08;21.10;;;;;;;;;;4974637;28;20449;-79
2022/11/01 09:44:01;;;;;;;37.13;19.67;;;;;;;;;;4976150;28;20486;-79
2022/11/01 09:46:31;;;;;;;36.35;18.65;;;;;;;;;;4976545;28;20058;-78
2022/11/01 09:48:59;;;;;;;32.28;17.20;;;;;;;;;;4976738;28;20554;-79
2022/11/01 09:51:25;;;;;;;31.80;18.35;;;;;;;;;;4977527;28;20130;-80
2022/11/01 09:53:53;;;;;;;35.63;17.45;;;;;;;;;;4978003;28;20058;-80
2022/11/01 09:56:31;;;;;;;35.22;18.50;;;;;;;;;;4979432;28;20034;-79
2022/11/01 09:59:06;;;;;;;36.33;18.80;;;;;;;;;;4979618;28;20126;-81
2022/11/01 10:01:52;;;;;;;38.08;19.98;;;;;;;;;;4978411;28;20471;-80
2022/11/01 10:04:21;;;;;;;31.38;17.98;;;;;;;;;;4972383;28;20039;-80
2022/11/01 10:06:50;;;;;;;35.45;19.83;;;;;;;;;;4978808;28;20513;-81
2022/11/01 10:09:26;;;;;;;34.65;19.58;;;;;;;;;;4979347;28;20030;-81
2022/11/01 10:12:10;;;;;;;32.58;19.08;;;;;;;;;;4977334;28;20022;-79
2022/11/01 10:14:36;;;;;;;33.67;18.20;;;;;;;;;;4976483;28;20435;-81
2022/11/01 10:17:25;;;;;;;36.25;19.52;;;;;;;;;;4979081;28;20031;-79
2022/11/01 10:19:51;;;;;;;37.25;19.85;;;;;;;;;;4978531;28;20031;-80
2022/11/01 10:22:17;;;;;;;34.92;19.23;;;;;;;;;;4978585;28;20057;-81
2022/11/01 10:24:58;;;;;;;34.40;20.65;;;;;;;;;;4977632;28;20022;-79
2022/11/01 10:27:24;;;;;;;33.22;18.10;;;;;;;;;;4978596;28;20041;-81
2022/11/01 10:29:53;;;;;;;32.17;17.27;;;;;;;;;;4978598;28;20030;-81
2022/11/01 10:32:33;;;;;;;29.85;18.70;;;;;;;;;;4978805;28;20103;-81
2022/11/01 10:35:19;;;;;;;33.75;17.63;;;;;;;;;;4978860;28;20112;-80
2022/11/01 10:37:52;;;;;;;33.90;18.75;;;;;;;;;;4978665;28;20033;-81
2022/11/01 10:40:37;;;;;;;32.75;17.70;;;;;;;;;;4977364;28;20034;-79
2022/11/01 10:43:10;;;;;;;32.42;18.95;;;;;;;;;;4977886;28;20041;-80
2022/11/01 10:45:36;;;;;;;32.17;17.35;;;;;;;;;;4978839;28;20031;-80
2022/11/01 10:48:03;;;;;;;29.83;16.95;;;;;;;;;;4976786;28;20023;-79
2022/11/01 10:50:30;;;;;;;29.10;16.20;;;;;;;;;;4978168;28;20018;-79
2022/11/01 10:53:00;;;;;;;31.27;17.52;;;;;;;;;;4976320;28;20098;-80
2022/11/01 10:55:32;;;;;;;36.63;17.05;;;;;;;;;;4978109;28;20029;-80
2022/11/01 10:58:04;;;;;;;31.45;17.25;;;;;;;;;;4980166;28;20030;-79
2022/11/01 11:00:31;;;;;;;30.63;17.65;;;;;;;;;;4983076;28;20034;-80
2022/11/01 11:02:59;;;;;;;30.92;17.85;;;;;;;;;;4984767;28;20023;-79
2022/11/01 11:05:28;;;;;;;33.05;17.83;;;;;;;;;;4982788;28;20022;-80
2022/11/01 11:07:56;;;;;;;30.75;18.15;;;;;;;;;;4983167;28;20530;-79
2022/11/01 11:10:25;;;;;;;35.83;18.73;;;;;;;;;;4983417;28;20019;-79
2022/11/01 11:12:53;;;;;;;31.30;18.17;;;;;;;;;;4985734;28;20506;-79
2022/11/01 11:15:21;;;;;;;31.58;17.30;;;;;;;;;;4984749;28;20037;-79
2022/11/01 11:17:51;;;;;;;32.80;18.63;;;;;;;;;;4984478;28;20035;-79
2022/11/01 11:20:20;;;;;;;29.98;17.80;;;;;;;;;;4985155;28;20078;-79
2022/11/01 11:22:46;;;;;;;34.15;17.75;;;;;;;;;;4983463;28;20518;-79
2022/11/01 11:25:17;;;;;;;29.88;16.83;;;;;;;;;;4984104;28;20439;-79
2022/11/01 11:27:46;;;;;;;28.73;18.33;;;;;;;;;;4983823;28;20019;-79
2022/11/01 11:30:13;;;;;;;26.63;16.02;;;;;;;;;;4983785;28;20019;-80
2022/11/01 11:32:46;;;;;;;29.50;17.45;;;;;;;;;;4963050;29;20027;-80
2022/11/01 11:35:15;;;;;;;28.40;16.52;;;;;;;;;;4974506;28;20034;-80
2022/11/01 11:37:51;;;;;;;27.40;16.20;;;;;;;;;;4984832;28;20031;-80
2022/11/01 11:40:23;;;;;;;27.85;16.40;;;;;;;;;;4985582;28;20014;-80
2022/11/01 11:42:49;;;;;;;27.35;15.52;;;;;;;;;;4983849;28;20487;-81
2022/11/01 11:45:21;;;;;;;29.73;16.77;;;;;;;;;;4986897;28;21145;-80
2022/11/01 11:47:47;;;;;;;26.83;15.80;;;;;;;;;;4985732;28;20027;-79
2022/11/01 11:50:19;;;;;;;27.23;16.17;;;;;;;;;;4986893;28;20051;-81
2022/11/01 11:52:47;;;;;;;25.33;15.93;;;;;;;;;;4982309;28;20031;-80
2022/11/01 11:55:34;;;;;;;25.92;16.77;;;;;;;;;;4988095;28;20051;-80
2022/11/01 11:58:01;;;;;;;28.05;16.40;;;;;;;;;;4990840;28;20049;-81
2022/11/01 12:00:28;;;;;;;25.33;14.90;;;;;;;;;;4992501;28;20039;-81
2022/11/01 12:02:54;;;;;;;28.20;16.50;;;;;;;;;;4994011;28;20027;-81
2022/11/01 12:05:22;;;;;;;25.08;15.85;;;;;;;;;;4993977;28;20027;-81
2022/11/01 12:07:50;;;;;;;23.15;15.85;;;;;;;;;;4992286;28;20023;-81
2022/11/01 12:10:34;;;;;;;26.65;17.02;;;;;;;;;;4988238;28;20019;-80
2022/11/01 12:13:01;;;;;;;27.67;17.08;;;;;;;;;;4992249;28;20031;-81
2022/11/01 12:15:28;;;;;;;26.63;15.35;;;;;;;;;;4986613;28;20026;-81
2022/11/01 12:17:55;;;;;;;25.45;15.75;;;;;;;;;;4984943;28;20094;-80
2022/11/01 12:20:23;;;;;;;26.13;14.27;;;;;;;;;;4984006;28;20042;-81
2022/11/01 12:23:09;;;;;;;25.05;15.75;;;;;;;;;;4982838;28;20026;-82
2022/11/01 12:25:35;;;;;;;13.98;7.70;;;;;;;;;;4982127;28;20015;-80
2022/11/01 12:28:03;;;;;;;10.88;6.47;;;;;;;;;;4981425;28;20022;-81
2022/11/01 12:30:31;;;;;;;10.05;5.97;;;;;;;;;;4981889;28;20340;-81
2022/11/01 12:32:58;;;;;;;10.52;6.28;;;;;;;;;;4982585;28;20104;-81
2022/11/01 12:35:28;;;;;;;8.38;5.75;;;;;;;;;;4980454;28;20031;-81
2022/11/01 12:38:06;;;;;;;9.68;6.22;;;;;;;;;;4981215;28;20031;-81
2022/11/01 12:40:40;;;;;;;10.55;6.53;;;;;;;;;;4978493;28;20023;-82
2022/11/01 12:43:15;;;;;;;9.52;6.15;;;;;;;;;;4982072;28;20018;-82
2022/11/01 12:45:58;;;;;;;9.77;5.93;;;;;;;;;;4986857;28;20042;-81
2022/11/01 12:48:29;;;;;;;9.65;5.88;;;;;;;;;;4987288;28;20023;-82
2022/11/01 12:50:55;;;;;;;11.73;7.13;;;;;;;;;;4987338;28;20027;-81
2022/11/01 12:53:21;;;;;;;9.90;6.35;;;;;;;;;;4986666;28;20025;-82
2022/11/01 12:55:47;;;;;;;9.55;6.72;;;;;;;;;;4985282;28;20054;-82
2022/11/01 12:58:15;;;;;;;10.68;6.75;;;;;;;;;;4983985;28;20126;-82
2022/11/01 13:01:00;;;;;;;10.00;6.03;;;;;;;;;;4983685;28;20085;-83
2022/11/01 13:03:33;;;;;;;10.27;6.90;;;;;;;;;;4983346;28;20042;-82
2022/11/01 13:06:05;;;;;;;10.52;6.43;;;;;;;;;;4981531;28;20034;-81
2022/11/01 13:08:38;;;;;;;9.45;6.07;;;;;;;;;;4980426;28;20022;-81
2022/11/01 13:11:18;;;;;;;10.07;6.50;;;;;;;;;;4980875;28;20027;-82
2022/11/01 13:13:49;;;;;;;11.13;6.35;;;;;;;;;;4981384;28;20081;-83
2022/11/01 13:16:18;;;;;;;10.85;6.85;;;;;;;;;;4981917;28;20023;-82
2022/11/01 13:18:52;;;;;;;10.93;7.20;;;;;;;;;;4981404;28;20046;-83
2022/11/01 13:21:18;;;;;;;12.75;7.45;;;;;;;;;;4981487;28;20051;-83
2022/11/01 13:23:47;;;;;;;12.55;7.85;;;;;;;;;;4981960;28;20687;-83
2022/11/01 13:26:26;;;;;;;15.52;8.05;;;;;;;;;;4981283;28;20105;-82
2022/11/01 13:28:58;;;;;;;13.27;7.55;;;;;;;;;;4980985;28;20019;-81
2022/11/01 13:31:24;;;;;;;;;;;;;;;;;;4979692;28;20027;-83
2022/11/01 13:33:59;;;;;;;11.02;6.90;;;;;;;;;;4980814;28;20424;-83
2022/11/01 13:36:30;;;;;;;12.32;7.70;;;;;;;;;;4980142;28;20027;-83
2022/11/01 13:38:59;;;;;;;12.20;7.65;;;;;;;;;;4979967;28;20310;-83
2022/11/01 13:41:31;;;;;;;14.10;8.20;;;;;;;;;;4980269;28;20019;-83
2022/11/01 13:43:59;;;;;;;11.48;7.15;;;;;;;;;;4979595;28;20045;-83
2022/11/01 13:46:37;;;;;;;10.45;6.90;;;;;;;;;;4980446;28;20025;-81
2022/11/01 13:49:26;;;;;;;14.10;8.93;;;;;;;;;;4981069;28;20085;-80
2022/11/01 13:52:00;;;;;;;17.65;9.50;;;;;;;;;;4980305;28;20491;-82
2022/11/01 13:54:32;;;;;;;16.77;9.25;;;;;;;;;;4980503;28;20114;-81
2022/11/01 13:57:00;;;;;;;19.20;9.70;;;;;;;;;;4980810;28;20035;-82
2022/11/01 13:59:43;;;;;;;21.08;10.63;;;;;;;;;;4979220;28;20035;-81
2022/11/01 14:02:09;;;;;;;;;;;;;;;;;;4981010;28;20057;-81
2022/11/01 14:04:38;;;;;;;20.75;10.63;;;;;;;;;;4980820;28;20210;-82
2022/11/01 14:07:11;;;;;;;17.08;9.77;;;;;;;;;;4981961;28;20015;-81
2022/11/01 14:09:47;;;;;;;14.10;8.25;;;;;;;;;;4981598;28;20023;-81
2022/11/01 14:12:32;;;;;;;12.05;7.60;;;;;;;;;;4981025;28;20054;-82
2022/11/01 14:15:13;;;;;;;17.52;9.85;;;;;;;;;;4980925;28;20038;-81
2022/11/01 14:17:55;;;;;;;18.85;10.95;;;;;;;;;;4980675;28;20034;-81
2022/11/01 14:20:27;;;;;;;19.63;10.18;;;;;;;;;;4979599;28;20039;-81
2022/11/01 14:22:54;;;;;;;21.80;11.35;;;;;;;;;;4980262;28;20029;-81
2022/11/01 14:25:23;;;;;;;22.70;13.05;;;;;;;;;;4980789;28;20025;-81
2022/11/01 14:27:50;;;;;;;22.70;12.45;;;;;;;;;;4980159;28;20132;-81
2022/11/01 14:30:22;;;;;;;28.17;15.55;;;;;;;;;;4979900;28;20414;-82
2022/11/01 14:32:52;;;;;;;20.70;11.52;;;;;;;;;;4980639;28;20026;-82
2022/11/01 14:35:19;;;;;;;24.73;13.25;;;;;;;;;;4981055;28;20061;-82
2022/11/01 14:37:47;;;;;;;27.20;13.60;;;;;;;;;;4980309;28;20081;-81